sensor_id;sensor_type;location;lat;lon;timestamp;P1;durP1;ratioP1;P2;durP2;ratioP2
64986;SDS011;67903;52.108;9.358;2023-09-19T00:02:40;3.50;;;2.00;;
64986;SDS011;67903;52.108;9.358;2023-09-19T00:05:26;3.42;;;1.67;;
64986;SDS011;67903;52.108;9.358;2023-09-19T00:08:13;2.30;;;1.80;;
64986;SDS011;67903;52.108;9.358;2023-09-19T00:10:59;3.55;;;1.80;;
64986;SDS011;67903;52.108;9.358;2023-09-19T00:13:50;2.70;;;1.83;;
64986;SDS011;67903;52.108;9.358;2023-09-19T00:16:36;3.45;;;2.10;;
64986;SDS011;67903;52.108;9.358;2023-09-19T00:19:22;4.88;;;2.33;;
64986;SDS011;67903;52.108;9.358;2023-09-19T00:22:09;2.88;;;2.05;;
64986;SDS011;67903;52.108;9.358;2023-09-19T00:24:54;3.05;;;2.67;;
64986;SDS011;67903;52.108;9.358;2023-09-19T00:27:39;4.75;;;3.03;;
64986;SDS011;67903;52.108;9.358;2023-09-19T00:30:27;5.25;;;3.20;;
64986;SDS011;67903;52.108;9.358;2023-09-19T00:33:13;3.88;;;3.50;;
64986;SDS011;67903;52.108;9.358;2023-09-19T00:36:02;3.92;;;3.17;;
64986;SDS011;67903;52.108;9.358;2023-09-19T00:38:50;4.57;;;3.65;;
64986;SDS011;67903;52.108;9.358;2023-09-19T00:41:36;7.22;;;3.75;;
64986;SDS011;67903;52.108;9.358;2023-09-19T00:44:22;6.80;;;3.95;;
64986;SDS011;67903;52.108;9.358;2023-09-19T00:47:08;4.72;;;4.32;;
64986;SDS011;67903;52.108;9.358;2023-09-19T00:49:54;4.78;;;4.05;;
64986;SDS011;67903;52.108;9.358;2023-09-19T00:52:42;4.50;;;3.85;;
64986;SDS011;67903;52.108;9.358;2023-09-19T00:55:28;6.82;;;3.20;;
64986;SDS011;67903;52.108;9.358;2023-09-19T00:58:16;4.70;;;3.58;;
64986;SDS011;67903;52.108;9.358;2023-09-19T01:01:02;6.45;;;2.90;;
64986;SDS011;67903;52.108;9.358;2023-09-19T01:03:53;5.05;;;3.38;;
64986;SDS011;67903;52.108;9.358;2023-09-19T01:06:39;7.00;;;3.47;;
64986;SDS011;67903;52.108;9.358;2023-09-19T01:09:25;5.15;;;3.30;;
64986;SDS011;67903;52.108;9.358;2023-09-19T01:12:12;4.97;;;2.95;;
64986;SDS011;67903;52.108;9.358;2023-09-19T01:15:21;6.30;;;3.55;;
64986;SDS011;67903;52.108;9.358;2023-09-19T01:30:22;6.57;;;2.85;;
64986;SDS011;67903;52.108;9.358;2023-09-19T01:33:12;4.40;;;2.50;;
64986;SDS011;67903;52.108;9.358;2023-09-19T01:36:00;5.47;;;3.22;;
64986;SDS011;67903;52.108;9.358;2023-09-19T01:38:45;6.32;;;2.90;;
64986;SDS011;67903;52.108;9.358;2023-09-19T01:47:33;4.95;;;3.47;;
64986;SDS011;67903;52.108;9.358;2023-09-19T01:50:31;4.50;;;3.20;;
64986;SDS011;67903;52.108;9.358;2023-09-19T01:53:29;3.85;;;3.50;;
64986;SDS011;67903;52.108;9.358;2023-09-19T01:56:27;6.13;;;3.72;;
64986;SDS011;67903;52.108;9.358;2023-09-19T01:59:21;7.95;;;3.75;;
64986;SDS011;67903;52.108;9.358;2023-09-19T02:02:16;5.60;;;3.53;;
64986;SDS011;67903;52.108;9.358;2023-09-19T02:05:03;5.18;;;3.17;;
64986;SDS011;67903;52.108;9.358;2023-09-19T02:07:49;6.03;;;3.75;;
64986;SDS011;67903;52.108;9.358;2023-09-19T02:10:35;4.45;;;3.72;;
64986;SDS011;67903;52.108;9.358;2023-09-19T02:13:21;6.13;;;3.42;;
64986;SDS011;67903;52.108;9.358;2023-09-19T02:16:11;4.38;;;3.50;;
64986;SDS011;67903;52.108;9.358;2023-09-19T02:18:57;6.97;;;3.75;;
64986;SDS011;67903;52.108;9.358;2023-09-19T02:21:45;6.10;;;3.28;;
64986;SDS011;67903;52.108;9.358;2023-09-19T02:24:30;4.05;;;3.22;;
64986;SDS011;67903;52.108;9.358;2023-09-19T02:27:16;7.03;;;3.70;;
64986;SDS011;67903;52.108;9.358;2023-09-19T02:30:03;4.30;;;3.20;;
64986;SDS011;67903;52.108;9.358;2023-09-19T02:32:51;5.38;;;3.30;;
64986;SDS011;67903;52.108;9.358;2023-09-19T02:35:36;6.18;;;3.45;;
64986;SDS011;67903;52.108;9.358;2023-09-19T02:38:22;5.15;;;3.60;;
64986;SDS011;67903;52.108;9.358;2023-09-19T02:41:10;7.18;;;3.50;;
64986;SDS011;67903;52.108;9.358;2023-09-19T02:43:55;5.53;;;3.83;;
64986;SDS011;67903;52.108;9.358;2023-09-19T02:46:42;8.32;;;4.25;;
64986;SDS011;67903;52.108;9.358;2023-09-19T02:49:27;5.32;;;4.00;;
64986;SDS011;67903;52.108;9.358;2023-09-19T02:52:13;7.35;;;3.90;;
64986;SDS011;67903;52.108;9.358;2023-09-19T02:54:59;7.22;;;4.53;;
64986;SDS011;67903;52.108;9.358;2023-09-19T02:57:47;7.22;;;4.25;;
64986;SDS011;67903;52.108;9.358;2023-09-19T03:00:32;5.85;;;4.25;;
64986;SDS011;67903;52.108;9.358;2023-09-19T03:03:19;6.35;;;4.05;;
64986;SDS011;67903;52.108;9.358;2023-09-19T03:06:05;7.68;;;4.35;;
64986;SDS011;67903;52.108;9.358;2023-09-19T03:08:52;10.40;;;4.18;;
64986;SDS011;67903;52.108;9.358;2023-09-19T03:11:40;8.48;;;4.60;;
64986;SDS011;67903;52.108;9.358;2023-09-19T03:14:27;9.38;;;4.63;;
64986;SDS011;67903;52.108;9.358;2023-09-19T03:17:16;6.95;;;4.25;;
64986;SDS011;67903;52.108;9.358;2023-09-19T03:20:02;11.88;;;4.80;;
64986;SDS011;67903;52.108;9.358;2023-09-19T03:22:49;7.63;;;4.93;;
64986;SDS011;67903;52.108;9.358;2023-09-19T03:25:35;10.52;;;4.97;;
64986;SDS011;67903;52.108;9.358;2023-09-19T03:28:24;7.45;;;4.25;;
64986;SDS011;67903;52.108;9.358;2023-09-19T03:31:12;8.02;;;4.43;;
64986;SDS011;67903;52.108;9.358;2023-09-19T03:33:58;10.10;;;4.75;;
64986;SDS011;67903;52.108;9.358;2023-09-19T03:36:43;7.80;;;4.53;;
64986;SDS011;67903;52.108;9.358;2023-09-19T03:39:29;9.05;;;4.97;;
64986;SDS011;67903;52.108;9.358;2023-09-19T03:42:14;6.00;;;3.95;;
64986;SDS011;67903;52.108;9.358;2023-09-19T03:45:00;8.73;;;4.97;;
64986;SDS011;67903;52.108;9.358;2023-09-19T03:47:49;7.55;;;5.20;;
64986;SDS011;67903;52.108;9.358;2023-09-19T03:50:38;6.15;;;4.15;;
64986;SDS011;67903;52.108;9.358;2023-09-19T03:53:23;8.18;;;4.90;;
64986;SDS011;67903;52.108;9.358;2023-09-19T03:56:09;8.93;;;4.75;;
64986;SDS011;67903;52.108;9.358;2023-09-19T03:58:55;5.28;;;4.80;;
64986;SDS011;67903;52.108;9.358;2023-09-19T04:01:41;10.40;;;5.00;;
64986;SDS011;67903;52.108;9.358;2023-09-19T04:04:27;6.18;;;4.43;;
64986;SDS011;67903;52.108;9.358;2023-09-19T04:07:14;7.82;;;5.28;;
64986;SDS011;67903;52.108;9.358;2023-09-19T04:10:00;10.82;;;5.07;;
64986;SDS011;67903;52.108;9.358;2023-09-19T04:12:52;6.85;;;5.07;;
64986;SDS011;67903;52.108;9.358;2023-09-19T04:15:39;7.30;;;4.57;;
64986;SDS011;67903;52.108;9.358;2023-09-19T04:18:26;9.30;;;4.78;;
64986;SDS011;67903;52.108;9.358;2023-09-19T04:21:11;7.88;;;4.68;;
64986;SDS011;67903;52.108;9.358;2023-09-19T04:23:57;5.78;;;4.25;;
64986;SDS011;67903;52.108;9.358;2023-09-19T04:26:42;13.95;;;5.10;;
64986;SDS011;67903;52.108;9.358;2023-09-19T04:29:28;10.43;;;5.28;;
64986;SDS011;67903;52.108;9.358;2023-09-19T04:32:14;6.65;;;4.20;;
64986;SDS011;67903;52.108;9.358;2023-09-19T04:35:01;8.48;;;4.78;;
64986;SDS011;67903;52.108;9.358;2023-09-19T04:37:50;7.10;;;4.75;;
64986;SDS011;67903;52.108;9.358;2023-09-19T04:40:36;10.40;;;5.13;;
64986;SDS011;67903;52.108;9.358;2023-09-19T04:43:25;8.45;;;4.88;;
64986;SDS011;67903;52.108;9.358;2023-09-19T04:46:11;8.15;;;4.63;;
64986;SDS011;67903;52.108;9.358;2023-09-19T04:48:59;11.30;;;4.88;;
64986;SDS011;67903;52.108;9.358;2023-09-19T04:51:45;7.65;;;5.00;;
64986;SDS011;67903;52.108;9.358;2023-09-19T04:54:32;6.07;;;4.43;;
64986;SDS011;67903;52.108;9.358;2023-09-19T04:57:18;5.60;;;4.15;;
64986;SDS011;67903;52.108;9.358;2023-09-19T05:00:04;8.32;;;5.15;;
64986;SDS011;67903;52.108;9.358;2023-09-19T05:02:57;10.98;;;5.40;;
64986;SDS011;67903;52.108;9.358;2023-09-19T05:05:43;12.05;;;4.82;;
64986;SDS011;67903;52.108;9.358;2023-09-19T05:08:28;6.55;;;4.65;;
64986;SDS011;67903;52.108;9.358;2023-09-19T05:11:14;8.02;;;4.13;;
64986;SDS011;67903;52.108;9.358;2023-09-19T05:13:59;11.48;;;4.10;;
64986;SDS011;67903;52.108;9.358;2023-09-19T05:16:48;11.35;;;4.00;;
64986;SDS011;67903;52.108;9.358;2023-09-19T05:19:34;7.88;;;4.43;;
64986;SDS011;67903;52.108;9.358;2023-09-19T05:22:20;7.88;;;3.63;;
64986;SDS011;67903;52.108;9.358;2023-09-19T05:25:06;9.27;;;4.10;;
64986;SDS011;67903;52.108;9.358;2023-09-19T05:27:53;9.35;;;4.10;;
64986;SDS011;67903;52.108;9.358;2023-09-19T05:30:38;8.35;;;3.65;;
64986;SDS011;67903;52.108;9.358;2023-09-19T05:33:25;9.23;;;4.03;;
64986;SDS011;67903;52.108;9.358;2023-09-19T05:36:11;8.88;;;3.63;;
64986;SDS011;67903;52.108;9.358;2023-09-19T05:38:57;8.75;;;3.63;;
64986;SDS011;67903;52.108;9.358;2023-09-19T05:41:43;10.20;;;3.63;;
64986;SDS011;67903;52.108;9.358;2023-09-19T05:44:28;12.02;;;3.60;;
64986;SDS011;67903;52.108;9.358;2023-09-19T05:47:14;7.70;;;3.25;;
64986;SDS011;67903;52.108;9.358;2023-09-19T05:49:59;8.13;;;3.22;;
64986;SDS011;67903;52.108;9.358;2023-09-19T05:52:51;7.82;;;3.25;;
64986;SDS011;67903;52.108;9.358;2023-09-19T05:55:41;8.98;;;2.70;;
64986;SDS011;67903;52.108;9.358;2023-09-19T05:58:27;9.75;;;3.63;;
64986;SDS011;67903;52.108;9.358;2023-09-19T06:01:13;10.10;;;3.60;;
64986;SDS011;67903;52.108;9.358;2023-09-19T06:03:58;7.72;;;3.13;;
64986;SDS011;67903;52.108;9.358;2023-09-19T06:06:45;6.07;;;2.80;;
64986;SDS011;67903;52.108;9.358;2023-09-19T06:09:33;9.77;;;3.30;;
64986;SDS011;67903;52.108;9.358;2023-09-19T06:12:19;8.13;;;2.90;;
64986;SDS011;67903;52.108;9.358;2023-09-19T06:15:05;6.35;;;2.70;;
64986;SDS011;67903;52.108;9.358;2023-09-19T06:17:54;10.10;;;3.42;;
64986;SDS011;67903;52.108;9.358;2023-09-19T06:20:41;7.03;;;2.88;;
64986;SDS011;67903;52.108;9.358;2023-09-19T06:23:29;7.97;;;2.78;;
64986;SDS011;67903;52.108;9.358;2023-09-19T06:26:14;9.15;;;2.92;;
64986;SDS011;67903;52.108;9.358;2023-09-19T06:29:00;6.43;;;2.75;;
64986;SDS011;67903;52.108;9.358;2023-09-19T06:31:46;8.57;;;3.13;;
64986;SDS011;67903;52.108;9.358;2023-09-19T06:34:32;8.45;;;2.40;;
64986;SDS011;67903;52.108;9.358;2023-09-19T06:37:18;7.65;;;2.55;;
64986;SDS011;67903;52.108;9.358;2023-09-19T06:40:05;6.93;;;2.60;;
64986;SDS011;67903;52.108;9.358;2023-09-19T06:43:01;9.55;;;2.85;;
64986;SDS011;67903;52.108;9.358;2023-09-19T06:45:47;5.72;;;2.28;;
64986;SDS011;67903;52.108;9.358;2023-09-19T06:48:33;7.53;;;2.30;;
64986;SDS011;67903;52.108;9.358;2023-09-19T06:51:18;10.10;;;2.72;;
64986;SDS011;67903;52.108;9.358;2023-09-19T06:54:04;7.97;;;2.83;;
64986;SDS011;67903;52.108;9.358;2023-09-19T06:56:50;6.45;;;2.42;;
64986;SDS011;67903;52.108;9.358;2023-09-19T06:59:35;4.35;;;2.38;;
64986;SDS011;67903;52.108;9.358;2023-09-19T07:02:22;7.03;;;2.60;;
64986;SDS011;67903;52.108;9.358;2023-09-19T07:05:07;7.78;;;2.30;;
64986;SDS011;67903;52.108;9.358;2023-09-19T07:07:53;9.65;;;2.58;;
64986;SDS011;67903;52.108;9.358;2023-09-19T07:10:44;5.38;;;2.20;;
64986;SDS011;67903;52.108;9.358;2023-09-19T07:13:33;4.57;;;2.13;;
64986;SDS011;67903;52.108;9.358;2023-09-19T07:16:19;8.90;;;2.67;;
64986;SDS011;67903;52.108;9.358;2023-09-19T07:19:14;7.90;;;2.40;;
64986;SDS011;67903;52.108;9.358;2023-09-19T07:22:02;5.68;;;2.38;;
64986;SDS011;67903;52.108;9.358;2023-09-19T07:24:47;8.13;;;2.20;;
64986;SDS011;67903;52.108;9.358;2023-09-19T07:27:34;7.72;;;2.65;;
64986;SDS011;67903;52.108;9.358;2023-09-19T07:30:19;7.72;;;2.08;;
64986;SDS011;67903;52.108;9.358;2023-09-19T07:33:05;5.07;;;1.90;;
64986;SDS011;67903;52.108;9.358;2023-09-19T07:35:50;5.00;;;1.92;;
64986;SDS011;67903;52.108;9.358;2023-09-19T07:38:36;10.07;;;3.00;;
64986;SDS011;67903;52.108;9.358;2023-09-19T07:41:23;6.97;;;2.22;;
64986;SDS011;67903;52.108;9.358;2023-09-19T07:44:09;8.75;;;2.17;;
64986;SDS011;67903;52.108;9.358;2023-09-19T07:46:57;6.20;;;2.40;;
64986;SDS011;67903;52.108;9.358;2023-09-19T07:49:42;6.18;;;2.42;;
64986;SDS011;67903;52.108;9.358;2023-09-19T07:52:32;6.60;;;2.50;;
64986;SDS011;67903;52.108;9.358;2023-09-19T07:55:19;7.85;;;2.40;;
64986;SDS011;67903;52.108;9.358;2023-09-19T07:58:08;11.02;;;2.45;;
64986;SDS011;67903;52.108;9.358;2023-09-19T08:00:54;5.60;;;2.22;;
64986;SDS011;67903;52.108;9.358;2023-09-19T08:03:39;6.93;;;2.28;;
64986;SDS011;67903;52.108;9.358;2023-09-19T08:06:26;5.95;;;2.88;;
64986;SDS011;67903;52.108;9.358;2023-09-19T08:09:14;6.53;;;2.20;;
64986;SDS011;67903;52.108;9.358;2023-09-19T08:12:08;5.20;;;2.20;;
64986;SDS011;67903;52.108;9.358;2023-09-19T08:14:55;6.53;;;2.30;;
64986;SDS011;67903;52.108;9.358;2023-09-19T08:17:40;7.45;;;2.30;;
64986;SDS011;67903;52.108;9.358;2023-09-19T08:20:26;8.18;;;2.03;;
64986;SDS011;67903;52.108;9.358;2023-09-19T08:23:12;12.52;;;2.70;;
64986;SDS011;67903;52.108;9.358;2023-09-19T08:25:57;6.53;;;1.95;;
64986;SDS011;67903;52.108;9.358;2023-09-19T08:28:45;7.25;;;2.50;;
64986;SDS011;67903;52.108;9.358;2023-09-19T08:31:31;8.45;;;2.08;;
64986;SDS011;67903;52.108;9.358;2023-09-19T08:34:17;7.40;;;2.42;;
64986;SDS011;67903;52.108;9.358;2023-09-19T08:37:03;7.32;;;2.15;;
64986;SDS011;67903;52.108;9.358;2023-09-19T08:39:48;9.85;;;2.20;;
64986;SDS011;67903;52.108;9.358;2023-09-19T08:42:46;6.38;;;2.25;;
64986;SDS011;67903;52.108;9.358;2023-09-19T08:45:36;5.85;;;2.00;;
64986;SDS011;67903;52.108;9.358;2023-09-19T08:48:23;9.23;;;2.17;;
64986;SDS011;67903;52.108;9.358;2023-09-19T08:51:27;8.52;;;1.85;;
64986;SDS011;67903;52.108;9.358;2023-09-19T08:54:24;8.13;;;2.40;;
64986;SDS011;67903;52.108;9.358;2023-09-19T08:57:14;5.15;;;2.15;;
64986;SDS011;67903;52.108;9.358;2023-09-19T09:00:06;5.97;;;2.33;;
64986;SDS011;67903;52.108;9.358;2023-09-19T09:02:56;2.78;;;1.48;;
64986;SDS011;67903;52.108;9.358;2023-09-19T09:05:43;7.78;;;2.08;;
64986;SDS011;67903;52.108;9.358;2023-09-19T09:08:31;6.90;;;1.98;;
64986;SDS011;67903;52.108;9.358;2023-09-19T09:11:17;5.47;;;2.17;;
64986;SDS011;67903;52.108;9.358;2023-09-19T09:14:03;4.43;;;2.20;;
64986;SDS011;67903;52.108;9.358;2023-09-19T09:16:52;5.63;;;2.40;;
64986;SDS011;67903;52.108;9.358;2023-09-19T09:19:41;7.97;;;2.55;;
64986;SDS011;67903;52.108;9.358;2023-09-19T09:22:28;7.57;;;2.45;;
64986;SDS011;67903;52.108;9.358;2023-09-19T09:25:14;5.45;;;2.20;;
64986;SDS011;67903;52.108;9.358;2023-09-19T09:28:00;5.85;;;2.30;;
64986;SDS011;67903;52.108;9.358;2023-09-19T09:30:46;6.28;;;2.33;;
64986;SDS011;67903;52.108;9.358;2023-09-19T09:33:32;7.40;;;2.40;;
64986;SDS011;67903;52.108;9.358;2023-09-19T09:36:18;6.20;;;3.55;;
64986;SDS011;67903;52.108;9.358;2023-09-19T09:39:31;5.55;;;1.95;;
64986;SDS011;67903;52.108;9.358;2023-09-19T09:42:30;7.45;;;2.40;;
64986;SDS011;67903;52.108;9.358;2023-09-19T09:48:18;8.98;;;2.33;;
64986;SDS011;67903;52.108;9.358;2023-09-19T09:51:28;6.35;;;2.15;;
64986;SDS011;67903;52.108;9.358;2023-09-19T09:54:16;8.73;;;2.20;;
64986;SDS011;67903;52.108;9.358;2023-09-19T09:57:06;7.75;;;2.47;;
64986;SDS011;67903;52.108;9.358;2023-09-19T10:00:01;10.20;;;2.67;;
64986;SDS011;67903;52.108;9.358;2023-09-19T10:02:56;9.20;;;2.40;;
64986;SDS011;67903;52.108;9.358;2023-09-19T10:05:44;6.78;;;2.15;;
64986;SDS011;67903;52.108;9.358;2023-09-19T10:08:30;7.35;;;2.72;;
64986;SDS011;67903;52.108;9.358;2023-09-19T10:11:16;5.38;;;2.03;;
64986;SDS011;67903;52.108;9.358;2023-09-19T10:14:04;6.88;;;2.40;;
64986;SDS011;67903;52.108;9.358;2023-09-19T10:16:51;7.97;;;2.78;;
64986;SDS011;67903;52.108;9.358;2023-09-19T10:19:46;5.15;;;2.50;;
64986;SDS011;67903;52.108;9.358;2023-09-19T10:22:51;7.88;;;2.60;;
64986;SDS011;67903;52.108;9.358;2023-09-19T10:25:43;6.60;;;2.50;;
64986;SDS011;67903;52.108;9.358;2023-09-19T10:28:32;7.28;;;2.33;;
64986;SDS011;67903;52.108;9.358;2023-09-19T10:31:20;4.38;;;2.05;;
64986;SDS011;67903;52.108;9.358;2023-09-19T10:34:10;4.32;;;2.40;;
64986;SDS011;67903;52.108;9.358;2023-09-19T10:36:56;7.25;;;2.15;;
64986;SDS011;67903;52.108;9.358;2023-09-19T10:39:44;8.25;;;2.45;;
64986;SDS011;67903;52.108;9.358;2023-09-19T10:42:31;7.05;;;2.75;;
64986;SDS011;67903;52.108;9.358;2023-09-19T10:45:21;6.13;;;2.60;;
64986;SDS011;67903;52.108;9.358;2023-09-19T10:48:07;5.88;;;2.30;;
64986;SDS011;67903;52.108;9.358;2023-09-19T10:50:58;7.35;;;2.53;;
64986;SDS011;67903;52.108;9.358;2023-09-19T10:54:12;5.53;;;2.55;;
64986;SDS011;67903;52.108;9.358;2023-09-19T10:57:00;6.55;;;3.00;;
64986;SDS011;67903;52.108;9.358;2023-09-19T11:00:09;7.70;;;2.53;;
64986;SDS011;67903;52.108;9.358;2023-09-19T11:06:03;4.97;;;2.22;;
64986;SDS011;67903;52.108;9.358;2023-09-19T11:08:59;9.27;;;2.50;;
64986;SDS011;67903;52.108;9.358;2023-09-19T11:12:12;6.13;;;2.50;;
64986;SDS011;67903;52.108;9.358;2023-09-19T11:27:09;6.22;;;2.33;;
64986;SDS011;67903;52.108;9.358;2023-09-19T11:30:25;4.25;;;2.50;;
64986;SDS011;67903;52.108;9.358;2023-09-19T11:33:28;5.72;;;2.50;;
64986;SDS011;67903;52.108;9.358;2023-09-19T11:36:35;8.50;;;2.50;;
64986;SDS011;67903;52.108;9.358;2023-09-19T11:39:24;8.07;;;2.40;;
64986;SDS011;67903;52.108;9.358;2023-09-19T11:48:31;6.93;;;2.63;;
64986;SDS011;67903;52.108;9.358;2023-09-19T11:51:19;4.50;;;2.63;;
64986;SDS011;67903;52.108;9.358;2023-09-19T11:54:11;5.53;;;2.30;;
64986;SDS011;67903;52.108;9.358;2023-09-19T11:57:07;6.03;;;2.50;;
64986;SDS011;67903;52.108;9.358;2023-09-19T11:59:54;7.13;;;2.60;;
64986;SDS011;67903;52.108;9.358;2023-09-19T12:02:41;4.10;;;2.33;;
64986;SDS011;67903;52.108;9.358;2023-09-19T12:05:31;5.20;;;2.38;;
64986;SDS011;67903;52.108;9.358;2023-09-19T12:08:18;4.68;;;2.30;;
64986;SDS011;67903;52.108;9.358;2023-09-19T12:11:06;6.03;;;2.20;;
64986;SDS011;67903;52.108;9.358;2023-09-19T12:13:55;4.38;;;2.42;;
64986;SDS011;67903;52.108;9.358;2023-09-19T12:16:43;7.50;;;2.90;;
64986;SDS011;67903;52.108;9.358;2023-09-19T12:19:49;7.95;;;2.63;;
64986;SDS011;67903;52.108;9.358;2023-09-19T12:22:39;8.57;;;2.97;;
64986;SDS011;67903;52.108;9.358;2023-09-19T12:25:41;3.58;;;2.25;;
64986;SDS011;67903;52.108;9.358;2023-09-19T12:28:38;4.97;;;2.58;;
64986;SDS011;67903;52.108;9.358;2023-09-19T12:31:29;5.57;;;2.17;;
64986;SDS011;67903;52.108;9.358;2023-09-19T12:34:16;8.32;;;2.58;;
64986;SDS011;67903;52.108;9.358;2023-09-19T12:40:03;6.10;;;2.85;;
64986;SDS011;67903;52.108;9.358;2023-09-19T12:43:00;4.45;;;2.15;;
64986;SDS011;67903;52.108;9.358;2023-09-19T12:45:48;6.63;;;2.60;;
64986;SDS011;67903;52.108;9.358;2023-09-19T12:48:34;4.30;;;2.33;;
64986;SDS011;67903;52.108;9.358;2023-09-19T12:51:20;4.57;;;2.50;;
64986;SDS011;67903;52.108;9.358;2023-09-19T12:54:09;7.15;;;2.88;;
64986;SDS011;67903;52.108;9.358;2023-09-19T12:57:00;4.63;;;2.38;;
64986;SDS011;67903;52.108;9.358;2023-09-19T12:59:45;6.57;;;2.72;;
64986;SDS011;67903;52.108;9.358;2023-09-19T13:02:31;6.18;;;3.05;;
64986;SDS011;67903;52.108;9.358;2023-09-19T13:05:17;7.70;;;2.65;;
64986;SDS011;67903;52.108;9.358;2023-09-19T13:08:17;5.60;;;2.15;;
64986;SDS011;67903;52.108;9.358;2023-09-19T13:14:15;5.60;;;2.17;;
64986;SDS011;67903;52.108;9.358;2023-09-19T13:17:06;3.88;;;2.17;;
64986;SDS011;67903;52.108;9.358;2023-09-19T13:20:03;6.90;;;2.53;;
64986;SDS011;67903;52.108;9.358;2023-09-19T13:22:51;3.58;;;2.58;;
64986;SDS011;67903;52.108;9.358;2023-09-19T13:25:40;5.78;;;2.40;;
64986;SDS011;67903;52.108;9.358;2023-09-19T13:28:25;5.85;;;2.42;;
64986;SDS011;67903;52.108;9.358;2023-09-19T13:31:12;4.70;;;2.20;;
64986;SDS011;67903;52.108;9.358;2023-09-19T13:33:59;4.63;;;2.08;;
64986;SDS011;67903;52.108;9.358;2023-09-19T13:36:45;5.13;;;2.40;;
64986;SDS011;67903;52.108;9.358;2023-09-19T13:39:33;6.30;;;2.33;;
64986;SDS011;67903;52.108;9.358;2023-09-19T13:42:19;5.05;;;2.55;;
64986;SDS011;67903;52.108;9.358;2023-09-19T13:45:06;6.72;;;2.55;;
64986;SDS011;67903;52.108;9.358;2023-09-19T13:47:52;5.75;;;2.50;;
64986;SDS011;67903;52.108;9.358;2023-09-19T13:50:39;5.03;;;2.08;;
64986;SDS011;67903;52.108;9.358;2023-09-19T13:53:27;4.05;;;2.30;;
64986;SDS011;67903;52.108;9.358;2023-09-19T13:56:13;5.57;;;2.33;;
64986;SDS011;67903;52.108;9.358;2023-09-19T13:58:58;4.78;;;2.30;;
64986;SDS011;67903;52.108;9.358;2023-09-19T14:01:43;7.25;;;2.38;;
64986;SDS011;67903;52.108;9.358;2023-09-19T14:04:29;5.80;;;2.75;;
64986;SDS011;67903;52.108;9.358;2023-09-19T14:07:18;4.85;;;2.50;;
64986;SDS011;67903;52.108;9.358;2023-09-19T14:10:05;3.75;;;2.10;;
64986;SDS011;67903;52.108;9.358;2023-09-19T14:12:53;4.38;;;2.55;;
64986;SDS011;67903;52.108;9.358;2023-09-19T14:15:39;6.10;;;2.60;;
64986;SDS011;67903;52.108;9.358;2023-09-19T14:18:24;5.97;;;2.50;;
64986;SDS011;67903;52.108;9.358;2023-09-19T14:21:10;4.53;;;2.40;;
64986;SDS011;67903;52.108;9.358;2023-09-19T14:23:56;4.93;;;2.30;;
64986;SDS011;67903;52.108;9.358;2023-09-19T14:26:41;8.40;;;2.60;;
64986;SDS011;67903;52.108;9.358;2023-09-19T14:29:27;4.70;;;1.92;;
64986;SDS011;67903;52.108;9.358;2023-09-19T14:32:14;4.95;;;2.17;;
64986;SDS011;67903;52.108;9.358;2023-09-19T14:34:59;6.40;;;2.30;;
64986;SDS011;67903;52.108;9.358;2023-09-19T14:37:45;4.40;;;2.35;;
64986;SDS011;67903;52.108;9.358;2023-09-19T14:40:30;4.35;;;1.67;;
64986;SDS011;67903;52.108;9.358;2023-09-19T14:43:16;5.95;;;2.10;;
64986;SDS011;67903;52.108;9.358;2023-09-19T14:46:08;4.80;;;2.13;;
64986;SDS011;67903;52.108;9.358;2023-09-19T14:48:55;5.18;;;1.85;;
64986;SDS011;67903;52.108;9.358;2023-09-19T14:51:44;5.38;;;2.20;;
64986;SDS011;67903;52.108;9.358;2023-09-19T14:54:32;6.88;;;2.35;;
64986;SDS011;67903;52.108;9.358;2023-09-19T14:57:18;4.00;;;2.13;;
64986;SDS011;67903;52.108;9.358;2023-09-19T15:00:05;3.45;;;1.92;;
64986;SDS011;67903;52.108;9.358;2023-09-19T15:02:56;4.40;;;2.22;;
64986;SDS011;67903;52.108;9.358;2023-09-19T15:05:43;3.53;;;1.88;;
64986;SDS011;67903;52.108;9.358;2023-09-19T15:08:28;5.65;;;2.45;;
64986;SDS011;67903;52.108;9.358;2023-09-19T15:11:14;4.45;;;2.08;;
64986;SDS011;67903;52.108;9.358;2023-09-19T15:14:05;4.53;;;1.85;;
64986;SDS011;67903;52.108;9.358;2023-09-19T15:16:50;5.97;;;2.40;;
64986;SDS011;67903;52.108;9.358;2023-09-19T15:19:36;3.88;;;1.90;;
64986;SDS011;67903;52.108;9.358;2023-09-19T15:22:22;3.83;;;2.10;;
64986;SDS011;67903;52.108;9.358;2023-09-19T15:25:08;5.45;;;2.10;;
64986;SDS011;67903;52.108;9.358;2023-09-19T15:27:53;4.38;;;2.10;;
64986;SDS011;67903;52.108;9.358;2023-09-19T15:30:39;3.88;;;2.08;;
64986;SDS011;67903;52.108;9.358;2023-09-19T15:33:24;5.38;;;2.15;;
64986;SDS011;67903;52.108;9.358;2023-09-19T15:36:13;3.38;;;1.80;;
64986;SDS011;67903;52.108;9.358;2023-09-19T15:41:46;4.78;;;2.20;;
64986;SDS011;67903;52.108;9.358;2023-09-19T15:44:34;5.38;;;2.15;;
64986;SDS011;67903;52.108;9.358;2023-09-19T15:47:19;4.75;;;2.17;;
64986;SDS011;67903;52.108;9.358;2023-09-19T15:50:05;5.03;;;2.28;;
64986;SDS011;67903;52.108;9.358;2023-09-19T15:52:54;4.65;;;2.30;;
64986;SDS011;67903;52.108;9.358;2023-09-19T15:55:40;5.50;;;2.90;;
64986;SDS011;67903;52.108;9.358;2023-09-19T15:58:25;6.53;;;2.35;;
64986;SDS011;67903;52.108;9.358;2023-09-19T16:01:11;3.60;;;2.15;;
64986;SDS011;67903;52.108;9.358;2023-09-19T16:03:57;3.55;;;2.10;;
64986;SDS011;67903;52.108;9.358;2023-09-19T16:06:43;4.47;;;2.33;;
64986;SDS011;67903;52.108;9.358;2023-09-19T16:09:28;2.88;;;1.90;;
64986;SDS011;67903;52.108;9.358;2023-09-19T16:12:14;3.13;;;1.92;;
64986;SDS011;67903;52.108;9.358;2023-09-19T16:14:59;5.18;;;2.10;;
64986;SDS011;67903;52.108;9.358;2023-09-19T16:17:45;5.70;;;2.22;;
64986;SDS011;67903;52.108;9.358;2023-09-19T16:20:31;4.45;;;2.10;;
64986;SDS011;67903;52.108;9.358;2023-09-19T16:23:18;3.67;;;2.03;;
64986;SDS011;67903;52.108;9.358;2023-09-19T16:26:06;4.50;;;2.08;;
64986;SDS011;67903;52.108;9.358;2023-09-19T16:28:54;4.90;;;2.33;;
64986;SDS011;67903;52.108;9.358;2023-09-19T16:31:45;3.13;;;2.10;;
64986;SDS011;67903;52.108;9.358;2023-09-19T16:34:31;6.55;;;1.95;;
64986;SDS011;67903;52.108;9.358;2023-09-19T16:37:16;3.55;;;2.00;;
64986;SDS011;67903;52.108;9.358;2023-09-19T16:40:03;5.32;;;2.17;;
64986;SDS011;67903;52.108;9.358;2023-09-19T16:42:50;6.18;;;2.70;;
64986;SDS011;67903;52.108;9.358;2023-09-19T16:45:35;5.55;;;2.10;;
64986;SDS011;67903;52.108;9.358;2023-09-19T16:48:24;5.35;;;2.25;;
64986;SDS011;67903;52.108;9.358;2023-09-19T16:51:11;4.70;;;1.92;;
64986;SDS011;67903;52.108;9.358;2023-09-19T16:53:58;4.13;;;1.98;;
64986;SDS011;67903;52.108;9.358;2023-09-19T16:56:43;4.13;;;2.13;;
64986;SDS011;67903;52.108;9.358;2023-09-19T16:59:29;5.75;;;2.22;;
64986;SDS011;67903;52.108;9.358;2023-09-19T17:02:14;4.35;;;1.98;;
64986;SDS011;67903;52.108;9.358;2023-09-19T17:05:01;5.28;;;2.10;;
64986;SDS011;67903;52.108;9.358;2023-09-19T17:07:46;2.67;;;2.00;;
64986;SDS011;67903;52.108;9.358;2023-09-19T17:10:33;5.20;;;2.15;;
64986;SDS011;67903;52.108;9.358;2023-09-19T17:13:19;6.45;;;2.30;;
64986;SDS011;67903;52.108;9.358;2023-09-19T17:16:05;4.60;;;2.30;;
64986;SDS011;67903;52.108;9.358;2023-09-19T17:19:03;3.13;;;1.80;;
64986;SDS011;67903;52.108;9.358;2023-09-19T17:21:53;3.47;;;2.00;;
64986;SDS011;67903;52.108;9.358;2023-09-19T17:24:39;4.28;;;2.03;;
64986;SDS011;67903;52.108;9.358;2023-09-19T17:27:24;7.65;;;2.00;;
64986;SDS011;67903;52.108;9.358;2023-09-19T17:30:11;5.18;;;2.00;;
64986;SDS011;67903;52.108;9.358;2023-09-19T17:33:00;4.97;;;2.38;;
64986;SDS011;67903;52.108;9.358;2023-09-19T17:35:46;4.57;;;2.50;;
64986;SDS011;67903;52.108;9.358;2023-09-19T17:38:31;3.38;;;1.80;;
64986;SDS011;67903;52.108;9.358;2023-09-19T17:41:17;5.47;;;3.00;;
64986;SDS011;67903;52.108;9.358;2023-09-19T17:44:03;9.70;;;2.55;;
64986;SDS011;67903;52.108;9.358;2023-09-19T17:46:49;3.22;;;2.08;;